Time;durP1;ratioP1;P1;durP2;ratioP2;P2;SDS_P1;SDS_P2;PMS_P1;PMS_P2;Temp;Humidity;BMP_temperature;BMP_pressure;BME280_temperature;BME280_humidity;BME280_pressure;Samples;Min_cycle;Max_cycle;Signal;HPM_P1;HPM_P2
2024/04/14 00:01:52;;;;;;;7.23;3.00;;;17.20;1.00;;;;;;5525181;25;20452;-65
2024/04/14 00:04:18;;;;;;;8.70;4.53;;;17.20;1.00;;;;;;5524301;25;20517;-66
2024/04/14 00:06:46;;;;;;;9.37;2.93;;;17.20;1.00;;;;;;5525810;25;20472;-66
2024/04/14 00:09:12;;;;;;;5.40;2.23;;;16.90;1.00;;;;;;5525714;25;20735;-66
2024/04/14 00:11:41;;;;;;;6.43;2.60;;;16.70;1.00;;;;;;5516051;25;20510;-66
2024/04/14 00:14:07;;;;;;;7.23;2.53;;;16.60;1.00;;;;;;5520261;26;20513;-66
2024/04/14 00:16:38;;;;;;;12.30;2.50;;;16.50;1.00;;;;;;5525538;25;20457;-66
2024/04/14 00:19:04;;;;;;;10.77;2.50;;;16.40;1.00;;;;;;5510169;25;20323;-65
2024/04/14 00:21:32;;;;;;;11.77;2.97;;;16.40;1.00;;;;;;5509724;25;20464;-66
2024/04/14 00:23:58;;;;;;;5.47;2.20;;;16.10;1.00;;;;;;5525461;25;20566;-65
2024/04/14 00:26:26;;;;;;;6.00;2.63;;;16.00;1.00;;;;;;5525710;25;20875;-66
2024/04/14 00:28:52;;;;;;;8.30;2.30;;;15.70;1.00;;;;;;5525349;25;20317;-65
2024/04/14 00:31:20;;;;;;;10.20;2.67;;;15.60;1.00;;;;;;5524422;25;20457;-65
2024/04/14 00:33:50;;;;;;;6.30;2.50;;;15.50;1.00;;;;;;5525704;25;20247;-66
2024/04/14 00:36:19;;;;;;;11.43;2.40;;;15.40;1.00;;;;;;5505890;25;20824;-65
2024/04/14 00:38:45;;;;;;;7.77;1.87;;;15.20;1.00;;;;;;5488416;26;20597;-65
2024/04/14 00:41:13;;;;;;;14.87;2.53;;;15.00;1.00;;;;;;5518332;26;20468;-65
2024/04/14 00:43:39;;;;;;;6.20;2.07;;;14.90;1.00;;;;;;5488022;26;20224;-65
2024/04/14 00:46:08;;;;;;;5.70;2.23;;;14.80;1.00;;;;;;5488381;26;20514;-65
2024/04/14 00:48:34;;;;;;;13.60;2.30;;;14.70;1.00;;;;;;5511695;26;20339;-65
2024/04/14 00:51:06;;;;;;;9.20;2.47;;;14.70;1.00;;;;;;5524723;25;20472;-65
2024/04/14 00:53:32;;;;;;;5.30;1.50;;;14.70;1.00;;;;;;5511301;26;20298;-65
2024/04/14 00:56:02;;;;;;;7.03;1.77;;;14.60;1.00;;;;;;5510980;25;20863;-66
2024/04/14 00:58:28;;;;;;;6.40;1.80;;;14.60;1.00;;;;;;5509796;26;20472;-65
2024/04/14 01:00:56;;;;;;;6.70;2.50;;;14.40;1.00;;;;;;5524635;25;20521;-65
2024/04/14 01:03:22;;;;;;;6.50;1.83;;;14.30;1.00;;;;;;5524795;25;20610;-65
2024/04/14 01:05:51;;;;;;;8.53;1.67;;;14.20;1.00;;;;;;5525043;25;20456;-65
2024/04/14 01:08:20;;;;;;;6.53;2.10;;;14.10;1.00;;;;;;5525141;25;20262;-65
2024/04/14 01:10:49;;;;;;;6.20;1.97;;;14.00;1.00;;;;;;5524247;25;20464;-65
2024/04/14 01:13:15;;;;;;;6.00;1.97;;;14.00;1.00;;;;;;5509451;25;20547;-65
2024/04/14 01:15:44;;;;;;;6.93;2.10;;;14.10;1.00;;;;;;5524858;25;20868;-65
2024/04/14 01:18:10;;;;;;;11.60;3.00;;;14.10;1.00;;;;;;5524576;25;20943;-65
2024/04/14 01:20:39;;;;;;;9.03;1.70;;;14.10;1.00;;;;;;5515666;25;20469;-65
2024/04/14 01:23:05;;;;;;;5.60;1.70;;;14.20;1.00;;;;;;5518742;26;20223;-65
2024/04/14 01:25:36;;;;;;;7.53;2.00;;;14.20;1.00;;;;;;5524709;25;20551;-65
2024/04/14 01:28:03;;;;;;;7.03;2.07;;;14.20;1.00;;;;;;5524908;25;20239;-65
2024/04/14 01:30:31;;;;;;;9.40;1.70;;;14.00;1.00;;;;;;5509788;26;20461;-65
2024/04/14 01:32:57;;;;;;;4.87;1.37;;;14.00;1.00;;;;;;5524927;25;20578;-65
2024/04/14 01:35:26;;;;;;;5.90;1.47;;;14.00;1.00;;;;;;5524206;25;20509;-65
2024/04/14 01:37:52;;;;;;;6.10;1.83;;;13.90;1.00;;;;;;5524362;25;20464;-65
2024/04/14 01:40:20;;;;;;;5.03;1.40;;;13.80;1.00;;;;;;5523653;25;20914;-65
2024/04/14 01:42:49;;;;;;;7.10;1.93;;;13.80;1.00;;;;;;5524147;25;20858;-65
2024/04/14 01:45:17;;;;;;;4.97;1.30;;;13.90;1.00;;;;;;5524027;25;21156;-65
2024/04/14 01:47:43;;;;;;;4.43;1.10;;;13.80;1.00;;;;;;5500110;25;20581;-65
2024/04/14 01:50:11;;;;;;;11.60;2.50;;;13.70;1.00;;;;;;5490641;26;20466;-65
2024/04/14 01:52:38;;;;;;;4.40;1.30;;;13.70;1.00;;;;;;5514939;26;20239;-65
2024/04/14 01:55:06;;;;;;;5.73;1.50;;;13.70;1.00;;;;;;5527639;25;20510;-65
2024/04/14 01:57:32;;;;;;;5.83;1.70;;;13.60;1.00;;;;;;5527627;25;20565;-65
2024/04/14 02:00:04;;;;;;;5.97;1.30;;;13.50;1.00;;;;;;5498374;25;21016;-65
2024/04/14 02:02:29;;;;;;;4.60;1.60;;;13.50;1.00;;;;;;5505841;26;20583;-65
2024/04/14 02:04:58;;;;;;;5.83;1.50;;;13.50;1.00;;;;;;5490626;26;20474;-65
2024/04/14 02:07:24;;;;;;;9.77;1.83;;;13.40;1.00;;;;;;5491148;26;20353;-65
2024/04/14 02:09:53;;;;;;;6.00;1.70;;;13.30;1.00;;;;;;5518031;26;21037;-65
2024/04/14 02:12:19;;;;;;;7.10;1.70;;;13.40;1.00;;;;;;5492530;25;20729;-65
2024/04/14 02:14:47;;;;;;;6.47;1.80;;;13.40;1.00;;;;;;5490616;26;20457;-65
2024/04/14 02:17:16;;;;;;;10.30;2.33;;;13.30;1.00;;;;;;5490699;26;20322;-66
2024/04/14 02:19:44;;;;;;;6.03;2.10;;;13.40;1.00;;;;;;5516050;26;20537;-64
2024/04/14 02:22:10;;;;;;;6.10;1.60;;;13.40;1.00;;;;;;5510286;25;20593;-65
2024/04/14 02:24:40;;;;;;;5.60;1.73;;;13.40;1.00;;;;;;5490482;26;20481;-65
2024/04/14 02:27:06;;;;;;;5.67;1.67;;;13.40;1.00;;;;;;5506457;26;20727;-65
2024/04/14 02:29:34;;;;;;;9.30;2.40;;;13.40;1.00;;;;;;5527397;25;20504;-65
2024/04/14 02:32:00;;;;;;;11.30;2.10;;;13.40;1.00;;;;;;5526751;25;20457;-65
2024/04/14 02:34:32;;;;;;;5.47;1.90;;;13.30;1.00;;;;;;5512135;25;20531;-65
2024/04/14 02:36:57;;;;;;;7.20;2.37;;;13.30;1.00;;;;;;5527620;25;20280;-65
2024/04/14 02:39:26;;;;;;;9.77;2.57;;;13.40;1.00;;;;;;5527266;25;21002;-65
2024/04/14 02:41:52;;;;;;;10.13;2.83;;;13.30;1.00;;;;;;5526499;25;20239;-65
2024/04/14 02:44:21;;;;;;;5.40;1.50;;;13.30;1.00;;;;;;5507616;25;20568;-65
2024/04/14 02:46:46;;;;;;;5.20;1.40;;;13.10;1.00;;;;;;5489995;26;20514;-65
2024/04/14 02:49:15;;;;;;;4.83;2.00;;;13.10;1.00;;;;;;5523275;26;20445;-65
2024/04/14 02:51:43;;;;;;;5.80;2.00;;;13.00;1.00;;;;;;5526345;25;20845;-65
2024/04/14 02:54:12;;;;;;;5.40;2.00;;;13.00;1.00;;;;;;5526744;25;20511;-65
2024/04/14 02:56:38;;;;;;;6.90;2.03;;;13.10;1.00;;;;;;5511457;25;20465;-65
2024/04/14 02:59:06;;;;;;;7.00;2.23;;;13.10;1.00;;;;;;5526307;25;20512;-65
2024/04/14 03:01:32;;;;;;;5.83;2.43;;;13.10;1.00;;;;;;5526110;25;20352;-65
2024/04/14 03:04:01;;;;;;;5.60;2.20;;;13.10;1.00;;;;;;5526732;25;20802;-65
2024/04/14 03:06:27;;;;;;;10.90;2.70;;;13.10;1.00;;;;;;5520329;25;20572;-65
2024/04/14 03:08:58;;;;;;;7.03;2.30;;;13.00;1.00;;;;;;5489642;26;20461;-65
2024/04/14 03:11:23;;;;;;;5.13;1.67;;;13.00;1.00;;;;;;5524915;26;20746;-64
2024/04/14 03:13:52;;;;;;;7.80;2.23;;;12.80;1.00;;;;;;5526291;25;20534;-65
2024/04/14 03:16:18;;;;;;;6.80;2.00;;;12.70;1.00;;;;;;5492060;25;20776;-65
2024/04/14 03:18:49;;;;;;;6.57;2.10;;;12.60;1.00;;;;;;5515545;26;20564;-65
2024/04/14 03:21:14;;;;;;;7.87;2.70;;;12.60;1.00;;;;;;5526442;25;20219;-65
2024/04/14 03:23:43;;;;;;;6.30;2.10;;;12.60;1.00;;;;;;5501548;25;20584;-65
2024/04/14 03:26:11;;;;;;;11.50;2.10;;;12.60;1.00;;;;;;5521457;26;20569;-65
2024/04/14 03:28:40;;;;;;;7.13;2.47;;;12.40;1.00;;;;;;5517497;25;20474;-65
2024/04/14 03:31:05;;;;;;;6.90;2.33;;;12.40;1.00;;;;;;5488571;26;20477;-65
2024/04/14 03:33:34;;;;;;;8.20;2.37;;;12.50;1.00;;;;;;5489680;26;20522;-65
2024/04/14 03:36:01;;;;;;;11.97;2.67;;;12.50;1.00;;;;;;5519523;26;20326;-65
2024/04/14 03:38:29;;;;;;;7.83;2.13;;;12.60;1.00;;;;;;5511008;25;20886;-65
2024/04/14 03:40:58;;;;;;;10.00;2.40;;;12.50;1.00;;;;;;5525473;25;20464;-65
2024/04/14 03:43:29;;;;;;;7.47;2.73;;;12.60;1.00;;;;;;5505200;25;20541;-65
2024/04/14 03:45:58;;;;;;;6.83;2.63;;;12.60;1.00;;;;;;5518137;26;20577;-65
2024/04/14 03:48:26;;;;;;;9.80;2.47;;;12.70;1.00;;;;;;5490079;25;20454;-65
2024/04/14 03:50:52;;;;;;;9.13;2.53;;;12.70;1.00;;;;;;5516605;26;20579;-65
2024/04/14 03:53:20;;;;;;;10.70;2.63;;;12.70;1.00;;;;;;5506454;25;21020;-65
2024/04/14 03:55:48;;;;;;;10.90;2.97;;;12.80;1.00;;;;;;5489035;26;20276;-65
2024/04/14 03:58:16;;;;;;;7.43;2.70;;;12.80;1.00;;;;;;5488891;26;21063;-65
2024/04/14 04:00:45;;;;;;;13.77;3.30;;;12.90;1.00;;;;;;5488505;26;20474;-65
2024/04/14 04:03:13;;;;;;;5.03;2.03;;;12.70;1.00;;;;;;5506384;26;20461;-65
2024/04/14 04:05:39;;;;;;;7.30;3.07;;;12.60;1.00;;;;;;5525680;25;20472;-63
2024/04/14 04:08:08;;;;;;;7.67;2.40;;;12.60;1.00;;;;;;5524928;25;20585;-65
2024/04/14 04:10:34;;;;;;;6.87;2.67;;;12.40;1.00;;;;;;5487408;26;20320;-65
2024/04/14 04:13:02;;;;;;;9.47;2.60;;;12.40;1.00;;;;;;5488708;26;20470;-65
2024/04/14 04:15:28;;;;;;;8.37;2.77;;;12.30;1.00;;;;;;5504107;26;20274;-65
2024/04/14 04:17:59;;;;;;;7.87;2.50;;;12.30;1.00;;;;;;5488783;26;20458;-65
2024/04/14 04:20:25;;;;;;;8.77;3.30;;;12.20;1.00;;;;;;5493776;26;20353;-65
2024/04/14 04:22:53;;;;;;;7.90;3.30;;;12.10;1.00;;;;;;5525604;25;20467;-65
2024/04/14 04:25:19;;;;;;;8.73;3.47;;;12.10;1.00;;;;;;5525410;25;20228;-65
2024/04/14 04:27:48;;;;;;;11.33;3.10;;;12.10;1.00;;;;;;5525493;25;20464;-65
2024/04/14 04:30:14;;;;;;;8.00;3.50;;;12.10;1.00;;;;;;5506665;25;20288;-65
2024/04/14 04:32:43;;;;;;;11.53;3.97;;;12.10;1.00;;;;;;5498172;26;20457;-65
2024/04/14 04:35:11;;;;;;;7.70;2.60;;;12.20;1.00;;;;;;5525367;25;21027;-65
2024/04/14 04:37:40;;;;;;;13.03;3.50;;;12.20;1.00;;;;;;5525435;25;21010;-65
2024/04/14 04:40:06;;;;;;;9.60;3.90;;;12.30;1.00;;;;;;5524625;25;20456;-66
2024/04/14 04:42:35;;;;;;;7.87;3.13;;;12.30;1.00;;;;;;5495586;26;20452;-65
2024/04/14 04:45:01;;;;;;;6.57;3.00;;;12.40;1.00;;;;;;5525408;25;20956;-65
2024/04/14 04:47:29;;;;;;;7.63;3.13;;;12.40;1.00;;;;;;5518733;25;20466;-64
2024/04/14 04:49:56;;;;;;;8.77;3.10;;;12.40;1.00;;;;;;5488421;26;20336;-65
2024/04/14 04:52:27;;;;;;;7.33;2.50;;;12.40;1.00;;;;;;5492916;26;20450;-65
2024/04/14 04:54:53;;;;;;;14.23;3.83;;;12.30;1.00;;;;;;5512473;25;20333;-65
2024/04/14 04:57:21;;;;;;;7.60;3.53;;;12.30;1.00;;;;;;5519014;26;20452;-65
2024/04/14 04:59:47;;;;;;;10.40;3.17;;;12.30;1.00;;;;;;5488211;26;20470;-65
2024/04/14 05:02:16;;;;;;;7.03;2.60;;;12.40;1.00;;;;;;5487171;26;20556;-65
2024/04/14 05:04:41;;;;;;;7.47;3.37;;;12.40;1.00;;;;;;5488086;26;20225;-65
2024/04/14 05:07:10;;;;;;;12.30;3.93;;;12.40;1.00;;;;;;5504513;26;20954;-65
2024/04/14 05:09:38;;;;;;;8.30;3.77;;;12.40;1.00;;;;;;5525094;25;20341;-65
2024/04/14 05:12:07;;;;;;;13.07;5.03;;;12.40;1.00;;;;;;5524855;25;20538;-64
2024/04/14 05:14:33;;;;;;;8.07;3.20;;;12.50;1.00;;;;;;5529884;26;20545;-65
2024/04/14 05:17:01;;;;;;;12.60;3.77;;;12.50;1.00;;;;;;5530704;25;20468;-65
2024/04/14 05:19:27;;;;;;;8.20;3.63;;;12.50;1.00;;;;;;5530388;25;20216;-65
2024/04/14 05:21:55;;;;;;;10.73;3.03;;;12.50;1.00;;;;;;5515066;25;20470;-65
2024/04/14 05:24:21;;;;;;;8.93;3.43;;;12.50;1.00;;;;;;5524656;26;20219;-65
2024/04/14 05:26:52;;;;;;;20.27;4.10;;;12.60;1.00;;;;;;5505460;25;20582;-65
2024/04/14 05:29:18;;;;;;;9.57;3.50;;;12.60;1.00;;;;;;5518921;25;20232;-65
2024/04/14 05:31:46;;;;;;;12.03;3.60;;;12.60;1.00;;;;;;5496979;26;20510;-65
2024/04/14 05:34:14;;;;;;;12.80;3.77;;;12.60;1.00;;;;;;5484707;26;20245;-66
2024/04/14 05:36:43;;;;;;;11.77;4.30;;;12.70;1.00;;;;;;5505433;25;20452;-66
2024/04/14 05:39:08;;;;;;;8.23;4.77;;;12.60;1.00;;;;;;5524704;25;20520;-65
2024/04/14 05:41:37;;;;;;;17.83;5.33;;;12.70;1.00;;;;;;5523661;25;20562;-65
2024/04/14 05:44:05;;;;;;;12.03;4.17;;;12.70;1.00;;;;;;5524126;25;20243;-63
2024/04/14 05:46:34;;;;;;;7.90;3.90;;;12.70;1.00;;;;;;5524498;25;20871;-65
2024/04/14 05:48:59;;;;;;;29.97;5.53;;;12.70;1.00;;;;;;5494396;25;20461;-65
2024/04/14 05:51:28;;;;;;;14.37;4.30;;;12.70;1.00;;;;;;5486603;26;21071;-65
2024/04/14 05:53:54;;;;;;;14.50;4.60;;;12.70;1.00;;;;;;5487489;26;20237;-65
2024/04/14 05:56:22;;;;;;;13.77;4.53;;;12.70;1.00;;;;;;5491138;26;21095;-65
2024/04/14 05:58:48;;;;;;;14.07;6.37;;;12.80;1.00;;;;;;5512464;25;20228;-65
2024/04/14 06:01:19;;;;;;;12.53;4.83;;;12.80;1.00;;;;;;5486726;26;20567;-65
2024/04/14 06:03:46;;;;;;;9.70;4.30;;;13.00;1.00;;;;;;5497938;26;20558;-65
2024/04/14 06:06:14;;;;;;;13.83;4.70;;;13.00;1.00;;;;;;5523667;25;20452;-66
2024/04/14 06:08:40;;;;;;;9.83;5.00;;;13.00;1.00;;;;;;5523493;25;20519;-65
2024/04/14 06:11:09;;;;;;;12.30;4.90;;;13.10;1.00;;;;;;5523143;25;20581;-68
2024/04/14 06:13:34;;;;;;;13.10;4.80;;;13.10;1.00;;;;;;5523635;25;20244;-66
2024/04/14 06:16:03;;;;;;;17.10;6.10;;;13.20;1.00;;;;;;5523883;25;20519;-65
2024/04/14 06:18:31;;;;;;;15.37;5.63;;;13.20;1.00;;;;;;5523234;25;20220;-65
2024/04/14 06:21:00;;;;;;;15.60;5.20;;;13.20;1.00;;;;;;5494516;25;20461;-65
2024/04/14 06:23:25;;;;;;;17.87;5.13;;;13.30;1.00;;;;;;5523377;26;20543;-66
2024/04/14 06:25:54;;;;;;;9.50;4.30;;;13.40;1.00;;;;;;5523817;25;20590;-65
2024/04/14 06:28:20;;;;;;;13.23;5.37;;;13.40;1.00;;;;;;5519479;25;20243;-65
2024/04/14 06:30:48;;;;;;;18.23;5.10;;;13.40;1.00;;;;;;5512431;26;20938;-65
2024/04/14 06:33:15;;;;;;;14.83;5.87;;;13.50;1.00;;;;;;5524424;25;20331;-65
2024/04/14 06:35:46;;;;;;;18.43;5.40;;;13.50;1.00;;;;;;5527281;25;20452;-65
2024/04/14 06:38:12;;;;;;;11.70;6.17;;;13.60;1.00;;;;;;5509368;25;20817;-65
2024/04/14 06:40:41;;;;;;;10.50;4.80;;;13.60;1.00;;;;;;5489653;26;20517;-65
2024/04/14 06:43:07;;;;;;;12.20;4.40;;;13.70;1.00;;;;;;5489905;26;20611;-65
2024/04/14 06:45:36;;;;;;;13.73;5.00;;;13.70;1.00;;;;;;5497963;26;20460;-65
2024/04/14 06:48:02;;;;;;;13.23;5.20;;;13.70;1.00;;;;;;5526959;25;20892;-65
2024/04/14 06:50:31;;;;;;;17.13;5.90;;;13.70;1.00;;;;;;5510817;26;20464;-66
2024/04/14 06:52:59;;;;;;;15.73;4.67;;;13.80;1.00;;;;;;5527022;25;20843;-65
2024/04/14 06:55:28;;;;;;;9.90;4.30;;;13.80;1.00;;;;;;5527015;25;20452;-65
2024/04/14 06:57:53;;;;;;;11.37;5.20;;;13.90;1.00;;;;;;5527007;25;20573;-65
2024/04/14 07:00:23;;;;;;;12.23;5.93;;;13.90;1.00;;;;;;5504093;25;20464;-65
2024/04/14 07:02:49;;;;;;;14.87;5.13;;;13.80;1.00;;;;;;5515856;26;20219;-65
2024/04/14 07:05:18;;;;;;;12.53;5.63;;;13.90;1.00;;;;;;5525903;25;21075;-65
2024/04/14 07:07:43;;;;;;;15.37;5.30;;;14.00;1.00;;;;;;5526256;25;20219;-65
2024/04/14 07:10:14;;;;;;;12.60;5.23;;;13.90;1.00;;;;;;5509195;25;20513;-65
2024/04/14 07:12:40;;;;;;;11.57;4.93;;;14.10;1.00;;;;;;5488538;26;20354;-65
2024/04/14 07:15:09;;;;;;;19.70;5.47;;;14.20;1.00;;;;;;5487789;26;20466;-67
2024/04/14 07:17:35;;;;;;;15.40;5.00;;;14.40;1.00;;;;;;5510123;26;20509;-67
2024/04/14 07:20:04;;;;;;;10.27;4.90;;;14.50;1.00;;;;;;5509479;25;20508;-67
2024/04/14 07:22:30;;;;;;;14.50;5.63;;;14.40;1.00;;;;;;5510088;26;20239;-69
2024/04/14 07:24:59;;;;;;;17.20;6.23;;;14.30;1.00;;;;;;5525297;25;20517;-69
2024/04/14 07:27:27;;;;;;;19.97;7.27;;;14.40;1.00;;;;;;5509457;25;21071;-69
2024/04/14 07:29:56;;;;;;;10.67;4.80;;;14.30;1.00;;;;;;5525399;25;20516;-68
2024/04/14 07:32:21;;;;;;;12.93;5.40;;;14.30;1.00;;;;;;5510021;25;20536;-68
2024/04/14 07:34:50;;;;;;;16.60;4.63;;;14.30;1.00;;;;;;5499412;25;20591;-65
2024/04/14 07:37:16;;;;;;;8.20;4.40;;;14.40;1.00;;;;;;5488555;26;20544;-66
2024/04/14 07:39:45;;;;;;;11.77;5.10;;;14.50;1.00;;;;;;5498665;26;20570;-64
2024/04/14 07:42:11;;;;;;;16.30;4.83;;;14.70;1.00;;;;;;5524563;25;20472;-66
2024/04/14 07:44:42;;;;;;;17.37;5.97;;;14.80;1.00;;;;;;5500813;25;20861;-66
2024/04/14 07:47:07;;;;;;;13.40;4.50;;;15.00;1.00;;;;;;5489029;26;20224;-65
2024/04/14 07:49:36;;;;;;;11.03;4.80;;;15.10;1.00;;;;;;5489387;26;20514;-66
2024/04/14 07:52:03;;;;;;;10.07;3.80;;;15.20;1.00;;;;;;5488835;26;20268;-66
2024/04/14 07:54:31;;;;;;;13.50;4.87;;;15.00;1.00;;;;;;5503953;26;20502;-66
2024/04/14 07:56:58;;;;;;;11.00;4.10;;;14.90;1.00;;;;;;5518080;26;20566;-66
2024/04/14 07:59:27;;;;;;;14.83;5.87;;;15.30;1.00;;;;;;5489398;25;20462;-67
2024/04/14 08:01:55;;;;;;;13.07;5.45;;;15.70;1.00;;;;;;5515079;26;20372;-65
2024/04/14 08:04:23;;;;;;;16.43;6.57;;;15.90;1.00;;;;;;5524827;25;20308;-65
2024/04/14 08:06:49;;;;;;;14.10;4.50;;;16.00;1.00;;;;;;5496945;25;20587;-65
2024/04/14 08:09:18;;;;;;;13.33;5.07;;;15.90;1.00;;;;;;5521780;26;20862;-66
2024/04/14 08:11:44;;;;;;;15.07;4.77;;;15.70;1.00;;;;;;5524127;25;20468;-66
2024/04/14 08:14:13;;;;;;;14.23;4.67;;;15.40;1.00;;;;;;5525858;25;20520;-65
2024/04/14 08:16:39;;;;;;;12.57;4.30;;;15.30;1.00;;;;;;5525910;25;20270;-65
2024/04/14 08:19:10;;;;;;;15.07;4.80;;;15.70;1.00;;;;;;5494328;25;20575;-65
2024/04/14 08:21:36;;;;;;;13.83;5.30;;;15.70;1.00;;;;;;5488310;26;20466;-66
2024/04/14 08:24:06;;;;;;;11.27;4.93;;;15.80;1.00;;;;;;5503662;26;20926;-66
2024/04/14 08:26:32;;;;;;;17.17;4.90;;;15.80;1.00;;;;;;5511363;26;20275;-66
2024/04/14 08:29:01;;;;;;;16.90;4.90;;;16.00;1.00;;;;;;5496376;25;20584;-65
2024/04/14 08:31:26;;;;;;;10.57;4.67;;;16.40;1.00;;;;;;5488274;26;20267;-65
2024/04/14 08:33:55;;;;;;;11.70;4.13;;;16.30;1.00;;;;;;5516916;26;20456;-65
2024/04/14 08:36:23;;;;;;;13.30;4.57;;;16.40;1.00;;;;;;5524948;25;20220;-66
2024/04/14 08:38:52;;;;;;;10.20;4.20;;;16.90;1.00;;;;;;5512724;25;20578;-66
2024/04/14 08:41:18;;;;;;;13.77;5.10;;;17.00;1.00;;;;;;5521901;26;20488;-66
2024/04/14 08:43:46;;;;;;;11.83;4.93;;;17.20;1.00;;;;;;5525162;25;20525;-66
2024/04/14 08:46:16;;;;;;;11.23;4.57;;;17.50;1.00;;;;;;5492190;25;20271;-65
2024/04/14 08:48:46;;;;;;;11.37;4.40;;;17.70;1.00;;;;;;5488339;26;20571;-66
2024/04/14 08:51:13;;;;;;;7.77;3.30;;;17.80;1.00;;;;;;5487600;26;20478;-66
2024/04/14 08:53:45;;;;;;;14.00;4.60;;;18.00;1.00;;;;;;5512856;26;20537;-66
2024/04/14 08:56:11;;;;;;;11.30;5.27;;;17.90;1.00;;;;;;5509681;25;20904;-65
2024/04/14 08:58:42;;;;;;;9.43;3.60;;;17.90;1.00;;;;;;5525237;25;20897;-66
2024/04/14 09:01:10;;;;;;;7.97;3.30;;;18.00;1.00;;;;;;5524907;25;20509;-66
2024/04/14 09:03:39;;;;;;;11.30;3.87;;;18.20;1.00;;;;;;5523248;25;20480;-65
2024/04/14 09:06:05;;;;;;;8.70;4.20;;;18.20;1.00;;;;;;5507644;25;20477;-66
2024/04/14 09:08:34;;;;;;;13.53;4.13;;;18.30;1.00;;;;;;5487106;26;20668;-65
2024/04/14 09:11:05;;;;;;;9.90;3.50;;;18.70;1.00;;;;;;5486103;26;20537;-65
2024/04/14 09:13:34;;;;;;;8.53;2.90;;;19.50;1.00;;;;;;5510879;26;20440;-66
2024/04/14 09:16:00;;;;;;;5.93;1.30;;;19.80;1.00;;;;;;5510690;25;20575;-66
2024/04/14 09:18:28;;;;;;;10.77;2.90;;;19.50;1.00;;;;;;5487782;26;20477;-66
2024/04/14 09:20:54;;;;;;;12.00;2.50;;;19.10;1.00;;;;;;5487430;26;20764;-66
2024/04/14 09:23:22;;;;;;;6.77;2.73;;;18.90;1.00;;;;;;5492160;26;20469;-63
2024/04/14 09:25:50;;;;;;;7.30;2.07;;;18.90;1.00;;;;;;5513242;25;20237;-63
2024/04/14 09:28:21;;;;;;;11.20;2.50;;;18.50;1.00;;;;;;5518185;26;20448;-63
2024/04/14 09:30:49;;;;;;;9.50;2.40;;;18.50;1.00;;;;;;5498259;26;20452;-63
2024/04/14 09:33:17;;;;;;;6.33;2.63;;;19.30;1.00;;;;;;5524319;25;21100;-63
2024/04/14 09:35:48;;;;;;;7.10;2.10;;;19.00;1.00;;;;;;5498904;25;20506;-63
2024/04/14 09:38:18;;;;;;;8.13;2.60;;;18.80;1.00;;;;;;5490016;26;20727;-63
2024/04/14 09:40:44;;;;;;;10.70;2.73;;;19.00;1.00;;;;;;5523087;25;20585;-64
2024/04/14 09:43:13;;;;;;;9.30;2.53;;;19.00;1.00;;;;;;5523170;25;20464;-63
2024/04/14 09:45:43;;;;;;;6.83;2.70;;;19.20;1.00;;;;;;5515115;25;20780;-64
2024/04/14 09:48:12;;;;;;;7.67;1.97;;;19.10;1.00;;;;;;5519226;26;20472;-64
2024/04/14 09:50:42;;;;;;;11.70;2.50;;;18.90;1.00;;;;;;5523945;25;20464;-63
2024/04/14 09:53:12;;;;;;;10.90;2.90;;;19.20;1.00;;;;;;5524083;25;20577;-64
2024/04/14 09:55:38;;;;;;;8.00;2.17;;;19.40;1.00;;;;;;5515187;25;20549;-63
2024/04/14 09:58:07;;;;;;;9.30;2.40;;;18.50;1.00;;;;;;5517680;26;20448;-64
2024/04/14 10:00:34;;;;;;;7.70;2.60;;;18.40;1.00;;;;;;5523363;25;20456;-64
2024/04/14 10:03:09;;;;;;;11.07;2.40;;;18.50;1.00;;;;;;5508597;25;20549;-64
2024/04/14 10:05:38;;;;;;;13.07;2.77;;;18.90;1.00;;;;;;5509022;26;20460;-64
2024/04/14 10:08:07;;;;;;;10.30;2.00;;;19.20;1.00;;;;;;5507845;25;20706;-63
2024/04/14 10:10:33;;;;;;;6.80;2.50;;;19.50;1.00;;;;;;5525111;25;20456;-64
2024/04/14 10:13:02;;;;;;;13.27;3.33;;;19.60;1.00;;;;;;5526582;25;20468;-63
2024/04/14 10:15:28;;;;;;;7.77;2.63;;;18.70;1.00;;;;;;5521291;25;20462;-63
2024/04/14 10:18:17;;;;;;;10.20;3.13;;;18.20;1.00;;;;;;5490953;26;20909;-64
2024/04/14 10:20:44;;;;;;;11.70;4.13;;;17.90;1.00;;;;;;5505371;26;20503;-63
2024/04/14 10:23:17;;;;;;;11.50;3.07;;;18.20;1.00;;;;;;5522814;26;20476;-63
2024/04/14 10:25:47;;;;;;;11.37;3.00;;;18.30;1.00;;;;;;5527922;25;20471;-64
2024/04/14 10:28:18;;;;;;;6.00;2.77;;;18.60;1.00;;;;;;5494443;25;20453;-64
2024/04/14 10:30:44;;;;;;;8.60;2.90;;;18.70;1.00;;;;;;5499731;26;20531;-64
2024/04/14 10:33:24;;;;;;;8.03;2.90;;;18.80;1.00;;;;;;5527399;25;20532;-64
2024/04/14 10:36:00;;;;;;;9.10;2.97;;;18.90;1.00;;;;;;5527154;25;20885;-63
2024/04/14 10:38:31;;;;;;;12.37;3.10;;;19.20;1.00;;;;;;5490659;25;20914;-64
2024/04/14 10:40:57;;;;;;;9.17;3.13;;;19.20;1.00;;;;;;5519250;26;20508;-64
2024/04/14 10:43:26;;;;;;;9.33;2.80;;;19.50;1.00;;;;;;5491229;25;20768;-64
2024/04/14 10:45:52;;;;;;;11.20;3.83;;;19.80;1.00;;;;;;5490279;26;20576;-63
2024/04/14 10:48:24;;;;;;;9.10;4.13;;;19.50;1.00;;;;;;5490211;26;20524;-64
2024/04/14 10:50:49;;;;;;;7.13;2.37;;;19.40;1.00;;;;;;5489533;26;20470;-64
2024/04/14 10:53:18;;;;;;;10.10;3.73;;;19.20;1.00;;;;;;5523326;26;20888;-64
2024/04/14 10:55:44;;;;;;;11.57;3.80;;;19.20;1.00;;;;;;5526955;25;20324;-64
2024/04/14 10:58:12;;;;;;;11.60;3.40;;;19.20;1.00;;;;;;5494207;25;20900;-64
2024/04/14 11:00:39;;;;;;;8.83;3.20;;;19.30;1.00;;;;;;5489341;26;20244;-64
2024/04/14 11:03:08;;;;;;;13.83;4.83;;;19.10;1.00;;;;;;5488020;26;20518;-66
2024/04/14 11:05:37;;;;;;;11.67;3.70;;;18.60;1.00;;;;;;5487664;26;20465;-65
2024/04/14 11:08:11;;;;;;;9.60;3.20;;;18.70;1.00;;;;;;5488016;26;20508;-66
2024/04/14 11:10:37;;;;;;;10.40;2.97;;;18.70;1.00;;;;;;5511222;26;20512;-64
2024/04/14 11:13:06;;;;;;;7.30;2.87;;;19.10;1.00;;;;;;5525961;25;20521;-66
2024/04/14 11:15:32;;;;;;;12.60;3.43;;;19.50;1.00;;;;;;5526466;25;20476;-66
2024/04/14 11:18:02;;;;;;;14.20;4.27;;;19.10;1.00;;;;;;5526577;25;21207;-66
2024/04/14 11:20:27;;;;;;;10.83;4.90;;;19.00;1.00;;;;;;5487640;25;20280;-66
2024/04/14 11:23:02;;;;;;;7.90;3.30;;;18.90;1.00;;;;;;5489857;26;20579;-66
2024/04/14 11:25:28;;;;;;;7.87;3.20;;;18.50;1.00;;;;;;5495827;26;20565;-66
2024/04/14 11:27:57;;;;;;;11.93;3.77;;;18.60;1.00;;;;;;5526425;25;20472;-66
2024/04/14 11:30:28;;;;;;;11.90;3.53;;;18.20;1.00;;;;;;5520612;25;20331;-66
2024/04/14 11:32:57;;;;;;;8.37;3.50;;;17.90;1.00;;;;;;5489173;26;20462;-66
2024/04/14 11:35:23;;;;;;;11.40;3.33;;;17.50;1.00;;;;;;5489280;26;20454;-65
2024/04/14 11:37:53;;;;;;;11.70;3.30;;;18.10;1.00;;;;;;5500840;26;20465;-66
2024/04/14 11:40:22;;;;;;;13.80;3.80;;;18.50;1.00;;;;;;5525583;25;20468;-66
2024/04/14 11:42:51;;;;;;;11.53;3.40;;;19.80;1.00;;;;;;5526556;25;20569;-66
2024/04/14 11:45:17;;;;;;;11.00;3.70;;;20.80;1.00;;;;;;5525524;25;20578;-64
2024/04/14 11:47:46;;;;;;;14.27;3.27;;;20.60;1.00;;;;;;5525698;25;20547;-63
2024/04/14 11:50:12;;;;;;;7.93;2.90;;;20.50;1.00;;;;;;5508454;25;20567;-63
2024/04/14 11:52:41;;;;;;;10.73;3.63;;;21.40;1.00;;;;;;5488483;26;20465;-63
2024/04/14 11:55:08;;;;;;;9.70;3.90;;;20.90;1.00;;;;;;5490224;26;20820;-63
2024/04/14 11:57:40;;;;;;;10.30;3.67;;;20.90;1.00;;;;;;5525981;25;20456;-64
2024/04/14 12:00:07;;;;;;;10.90;3.83;;;20.50;1.00;;;;;;5525820;25;20524;-64
2024/04/14 12:02:35;;;;;;;9.63;3.60;;;20.50;1.00;;;;;;5501946;25;20509;-64
2024/04/14 12:05:01;;;;;;;11.80;3.53;;;21.40;1.00;;;;;;5516942;26;20565;-64
2024/04/14 12:07:29;;;;;;;10.53;3.93;;;21.30;1.00;;;;;;5525413;25;20460;-64
2024/04/14 12:09:55;;;;;;;9.03;2.90;;;20.60;1.00;;;;;;5496148;25;20323;-63
2024/04/14 12:12:23;;;;;;;7.10;3.00;;;19.60;1.00;;;;;;5487917;26;20470;-64
2024/04/14 12:14:52;;;;;;;8.10;3.03;;;19.30;1.00;;;;;;5516077;26;20288;-64
2024/04/14 12:17:20;;;;;;;9.40;3.27;;;20.20;1.00;;;;;;5491511;25;20462;-64
2024/04/14 12:19:47;;;;;;;8.40;2.80;;;20.40;1.00;;;;;;5514848;26;21160;-63
2024/04/14 12:22:16;;;;;;;6.33;2.40;;;20.10;1.00;;;;;;5524674;25;20577;-63
2024/04/14 12:24:42;;;;;;;9.07;2.90;;;19.80;1.00;;;;;;5525517;25;20577;-64
2024/04/14 12:27:10;;;;;;;8.13;2.73;;;18.90;1.00;;;;;;5525393;25;20472;-64
2024/04/14 12:29:36;;;;;;;13.77;3.47;;;18.30;1.00;;;;;;5525508;25;20330;-64
2024/04/14 12:32:07;;;;;;;8.70;3.20;;;18.30;1.00;;;;;;5493960;25;20465;-64
2024/04/14 12:34:34;;;;;;;10.67;3.03;;;18.50;1.00;;;;;;5503990;26;20224;-64
2024/04/14 12:37:02;;;;;;;8.30;2.53;;;18.30;1.00;;;;;;5518344;26;20457;-64
2024/04/14 12:39:28;;;;;;;12.90;4.10;;;18.90;1.00;;;;;;5525534;25;20524;-63
2024/04/14 12:41:57;;;;;;;8.20;2.57;;;20.40;1.00;;;;;;5524912;25;20577;-63
2024/04/14 12:44:23;;;;;;;7.07;2.50;;;20.80;1.00;;;;;;5493688;25;20291;-63
2024/04/14 12:46:51;;;;;;;11.50;3.03;;;22.00;1.00;;;;;;5524862;25;20573;-63
2024/04/14 12:49:22;;;;;;;6.80;2.57;;;22.70;1.00;;;;;;5525001;25;20573;-63
2024/04/14 12:51:52;;;;;;;10.80;2.70;;;22.90;1.00;;;;;;5513265;25;20517;-63
2024/04/14 12:54:17;;;;;;;8.73;2.60;;;23.30;1.00;;;;;;5523066;26;20602;-64
2024/04/14 12:56:46;;;;;;;6.20;2.03;;;22.40;1.00;;;;;;5525306;25;20893;-64